sensor_id;sensor_type;location;lat;lon;timestamp;temperature;humidity
23591;DHT22;11973;52.098;7.582;2023-06-14T04:15:25;16.50;49.60
23591;DHT22;11973;52.098;7.582;2023-06-14T04:17:54;16.50;49.70
23591;DHT22;11973;52.098;7.582;2023-06-14T04:20:23;16.50;49.80
23591;DHT22;11973;52.098;7.582;2023-06-14T04:22:52;16.50;50.10
23591;DHT22;11973;52.098;7.582;2023-06-14T04:25:18;16.50;50.20
23591;DHT22;11973;52.098;7.582;2023-06-14T04:27:44;16.60;50.40
23591;DHT22;11973;52.098;7.582;2023-06-14T04:30:11;16.60;51.20
23591;DHT22;11973;52.098;7.582;2023-06-14T04:32:42;16.60;50.80
23591;DHT22;11973;52.098;7.582;2023-06-14T04:35:11;16.60;50.90
23591;DHT22;11973;52.098;7.582;2023-06-14T04:37:39;16.60;51.10
23591;DHT22;11973;52.098;7.582;2023-06-14T04:40:07;16.70;51.30
23591;DHT22;11973;52.098;7.582;2023-06-14T04:42:35;16.70;51.40
23591;DHT22;11973;52.098;7.582;2023-06-14T04:45:03;16.70;51.50
23591;DHT22;11973;52.098;7.582;2023-06-14T04:47:29;16.70;51.70
23591;DHT22;11973;52.098;7.582;2023-06-14T04:49:59;16.80;52.00
23591;DHT22;11973;52.098;7.582;2023-06-14T04:52:28;16.80;52.20
23591;DHT22;11973;52.098;7.582;2023-06-14T04:54:56;16.80;52.20
23591;DHT22;11973;52.098;7.582;2023-06-14T04:57:22;16.90;52.60
23591;DHT22;11973;52.098;7.582;2023-06-14T04:59:52;16.90;52.50
23591;DHT22;11973;52.098;7.582;2023-06-14T05:02:22;16.90;52.50
23591;DHT22;11973;52.098;7.582;2023-06-14T05:04:53;17.00;52.60
23591;DHT22;11973;52.098;7.582;2023-06-14T05:07:19;17.00;53.40
23591;DHT22;11973;52.098;7.582;2023-06-14T05:09:47;17.10;52.90
23591;DHT22;11973;52.098;7.582;2023-06-14T05:12:13;17.10;52.90
23591;DHT22;11973;52.098;7.582;2023-06-14T05:14:40;17.10;53.00
23591;DHT22;11973;52.098;7.582;2023-06-14T05:17:06;17.20;53.10
23591;DHT22;11973;52.098;7.582;2023-06-14T05:19:32;17.20;53.10
23591;DHT22;11973;52.098;7.582;2023-06-14T05:21:58;17.30;53.20
23591;DHT22;11973;52.098;7.582;2023-06-14T05:24:24;17.30;53.90
23591;DHT22;11973;52.098;7.582;2023-06-14T05:26:49;17.30;53.30
23591;DHT22;11973;52.098;7.582;2023-06-14T05:29:15;17.40;53.50
23591;DHT22;11973;52.098;7.582;2023-06-14T05:31:41;17.40;53.50
23591;DHT22;11973;52.098;7.582;2023-06-14T05:34:07;17.50;53.60
23591;DHT22;11973;52.098;7.582;2023-06-14T05:36:32;17.60;53.60
23591;DHT22;11973;52.098;7.582;2023-06-14T05:38:58;17.60;53.70
23591;DHT22;11973;52.098;7.582;2023-06-14T05:41:28;17.70;53.80
23591;DHT22;11973;52.098;7.582;2023-06-14T05:43:55;17.70;53.90
23591;DHT22;11973;52.098;7.582;2023-06-14T05:46:22;17.80;53.90
23591;DHT22;11973;52.098;7.582;2023-06-14T05:48:53;17.90;53.90
23591;DHT22;11973;52.098;7.582;2023-06-14T05:51:20;17.90;53.90
23591;DHT22;11973;52.098;7.582;2023-06-14T05:53:46;18.00;54.00
23591;DHT22;11973;52.098;7.582;2023-06-14T05:56:13;18.00;54.00
23591;DHT22;11973;52.098;7.582;2023-06-14T05:58:39;18.10;54.70
23591;DHT22;11973;52.098;7.582;2023-06-14T06:01:05;18.10;54.10
23591;DHT22;11973;52.098;7.582;2023-06-14T06:03:30;18.20;54.10
23591;DHT22;11973;52.098;7.582;2023-06-14T06:05:56;18.20;54.00
23591;DHT22;11973;52.098;7.582;2023-06-14T06:08:22;18.30;54.10
23591;DHT22;11973;52.098;7.582;2023-06-14T06:10:47;18.40;54.10
23591;DHT22;11973;52.098;7.582;2023-06-14T06:13:13;18.40;54.00
23591;DHT22;11973;52.098;7.582;2023-06-14T06:15:39;18.50;54.10
23591;DHT22;11973;52.098;7.582;2023-06-14T06:18:05;18.50;54.00
23591;DHT22;11973;52.098;7.582;2023-06-14T06:20:30;18.60;54.10
23591;DHT22;11973;52.098;7.582;2023-06-14T06:22:58;18.70;54.20
23591;DHT22;11973;52.098;7.582;2023-06-14T06:25:25;18.70;54.00
23591;DHT22;11973;52.098;7.582;2023-06-14T06:27:54;18.80;54.00
23591;DHT22;11973;52.098;7.582;2023-06-14T06:30:22;18.90;54.00
23591;DHT22;11973;52.098;7.582;2023-06-14T06:32:47;18.90;54.50
23591;DHT22;11973;52.098;7.582;2023-06-14T06:35:13;19.00;53.80
23591;DHT22;11973;52.098;7.582;2023-06-14T06:37:41;19.00;53.70
23591;DHT22;11973;52.098;7.582;2023-06-14T06:40:07;19.10;53.80
23591;DHT22;11973;52.098;7.582;2023-06-14T06:42:34;19.20;53.60
23591;DHT22;11973;52.098;7.582;2023-06-14T06:45:03;19.20;53.50
23591;DHT22;11973;52.098;7.582;2023-06-14T06:47:29;19.30;53.40
23591;DHT22;11973;52.098;7.582;2023-06-14T06:49:54;19.30;53.20
23591;DHT22;11973;52.098;7.582;2023-06-14T06:52:20;19.40;53.20
23591;DHT22;11973;52.098;7.582;2023-06-14T06:54:46;19.40;53.00
23591;DHT22;11973;52.098;7.582;2023-06-14T06:57:12;19.50;53.10
23591;DHT22;11973;52.098;7.582;2023-06-14T06:59:37;19.50;53.00
23591;DHT22;11973;52.098;7.582;2023-06-14T07:02:04;19.50;52.90
23591;DHT22;11973;52.098;7.582;2023-06-14T07:04:30;19.60;52.80
23591;DHT22;11973;52.098;7.582;2023-06-14T07:06:56;19.60;52.70
23591;DHT22;11973;52.098;7.582;2023-06-14T07:09:22;19.70;52.70
23591;DHT22;11973;52.098;7.582;2023-06-14T07:11:48;19.70;52.50
23591;DHT22;11973;52.098;7.582;2023-06-14T07:14:14;19.70;52.30
23591;DHT22;11973;52.098;7.582;2023-06-14T07:16:40;19.70;52.10
23591;DHT22;11973;52.098;7.582;2023-06-14T07:19:06;19.80;52.10
23591;DHT22;11973;52.098;7.582;2023-06-14T07:21:32;19.80;52.00
23591;DHT22;11973;52.098;7.582;2023-06-14T07:23:58;19.90;51.90
23591;DHT22;11973;52.098;7.582;2023-06-14T07:26:24;19.90;51.70
23591;DHT22;11973;52.098;7.582;2023-06-14T07:28:50;19.90;51.60
23591;DHT22;11973;52.098;7.582;2023-06-14T07:31:16;20.00;51.70
23591;DHT22;11973;52.098;7.582;2023-06-14T07:33:43;20.00;52.20
23591;DHT22;11973;52.098;7.582;2023-06-14T07:36:09;20.10;51.50
23591;DHT22;11973;52.098;7.582;2023-06-14T07:38:35;20.10;51.50
23591;DHT22;11973;52.098;7.582;2023-06-14T07:41:02;20.20;51.50
23591;DHT22;11973;52.098;7.582;2023-06-14T07:43:28;20.20;51.40
23591;DHT22;11973;52.098;7.582;2023-06-14T07:45:53;20.30;51.30
23591;DHT22;11973;52.098;7.582;2023-06-14T07:48:19;20.30;51.20
23591;DHT22;11973;52.098;7.582;2023-06-14T07:50:45;20.30;51.10
23591;DHT22;11973;52.098;7.582;2023-06-14T07:53:11;20.40;51.10
23591;DHT22;11973;52.098;7.582;2023-06-14T07:55:36;20.40;50.80
23591;DHT22;11973;52.098;7.582;2023-06-14T07:58:03;20.40;50.70
23591;DHT22;11973;52.098;7.582;2023-06-14T08:00:29;20.50;50.60
23591;DHT22;11973;52.098;7.582;2023-06-14T08:02:55;20.50;50.60
23591;DHT22;11973;52.098;7.582;2023-06-14T08:05:28;20.50;50.40
23591;DHT22;11973;52.098;7.582;2023-06-14T08:07:54;20.60;50.30
23591;DHT22;11973;52.098;7.582;2023-06-14T08:10:21;20.50;50.20
23591;DHT22;11973;52.098;7.582;2023-06-14T08:12:47;20.60;50.10
23591;DHT22;11973;52.098;7.582;2023-06-14T08:15:18;20.60;50.10
23591;DHT22;11973;52.098;7.582;2023-06-14T08:17:44;20.70;50.10
23591;DHT22;11973;52.098;7.582;2023-06-14T08:20:11;20.70;50.00
23591;DHT22;11973;52.098;7.582;2023-06-14T08:22:37;20.70;49.90
23591;DHT22;11973;52.098;7.582;2023-06-14T08:25:04;20.70;49.80
23591;DHT22;11973;52.098;7.582;2023-06-14T08:27:30;20.70;49.50
23591;DHT22;11973;52.098;7.582;2023-06-14T08:29:56;20.80;49.40
23591;DHT22;11973;52.098;7.582;2023-06-14T08:32:22;20.80;49.20
23591;DHT22;11973;52.098;7.582;2023-06-14T08:34:48;20.80;49.20
23591;DHT22;11973;52.098;7.582;2023-06-14T08:37:14;20.80;49.10
23591;DHT22;11973;52.098;7.582;2023-06-14T08:39:41;20.90;49.10
23591;DHT22;11973;52.098;7.582;2023-06-14T08:42:07;20.90;49.10
23591;DHT22;11973;52.098;7.582;2023-06-14T08:44:34;20.90;49.60
23591;DHT22;11973;52.098;7.582;2023-06-14T08:47:00;20.90;48.90
23591;DHT22;11973;52.098;7.582;2023-06-14T08:49:26;20.90;48.90
23591;DHT22;11973;52.098;7.582;2023-06-14T08:51:57;21.00;49.10
23591;DHT22;11973;52.098;7.582;2023-06-14T08:54:25;21.00;49.00
23591;DHT22;11973;52.098;7.582;2023-06-14T08:56:53;21.10;49.10
23591;DHT22;11973;52.098;7.582;2023-06-14T08:59:25;21.10;49.00
23591;DHT22;11973;52.098;7.582;2023-06-14T09:01:51;21.10;49.00
23591;DHT22;11973;52.098;7.582;2023-06-14T09:04:18;21.20;49.10
23591;DHT22;11973;52.098;7.582;2023-06-14T09:06:45;21.20;49.10
23591;DHT22;11973;52.098;7.582;2023-06-14T09:09:11;21.20;49.10
23591;DHT22;11973;52.098;7.582;2023-06-14T09:11:38;21.20;49.00
23591;DHT22;11973;52.098;7.582;2023-06-14T09:14:03;21.20;49.00
23591;DHT22;11973;52.098;7.582;2023-06-14T09:16:32;21.30;48.90
23591;DHT22;11973;52.098;7.582;2023-06-14T09:18:58;21.30;49.60
23591;DHT22;11973;52.098;7.582;2023-06-14T09:21:24;21.30;48.90
23591;DHT22;11973;52.098;7.582;2023-06-14T09:23:51;21.40;48.80
23591;DHT22;11973;52.098;7.582;2023-06-14T09:26:18;21.40;48.70
23591;DHT22;11973;52.098;7.582;2023-06-14T09:28:50;21.40;48.60
23591;DHT22;11973;52.098;7.582;2023-06-14T09:31:20;21.40;48.50
23591;DHT22;11973;52.098;7.582;2023-06-14T09:33:48;21.40;48.40
23591;DHT22;11973;52.098;7.582;2023-06-14T09:36:18;21.50;48.40
23591;DHT22;11973;52.098;7.582;2023-06-14T09:38:54;21.50;48.40
23591;DHT22;11973;52.098;7.582;2023-06-14T09:41:21;21.50;48.30
23591;DHT22;11973;52.098;7.582;2023-06-14T09:43:47;21.60;48.40
23591;DHT22;11973;52.098;7.582;2023-06-14T09:46:13;21.60;48.40
23591;DHT22;11973;52.098;7.582;2023-06-14T09:48:39;21.60;48.30
23591;DHT22;11973;52.098;7.582;2023-06-14T09:51:10;21.70;48.30
23591;DHT22;11973;52.098;7.582;2023-06-14T09:53:39;21.80;48.30
23591;DHT22;11973;52.098;7.582;2023-06-14T09:56:06;21.90;48.30
23591;DHT22;11973;52.098;7.582;2023-06-14T09:58:35;21.90;48.20
23591;DHT22;11973;52.098;7.582;2023-06-14T10:01:02;22.00;48.10
23591;DHT22;11973;52.098;7.582;2023-06-14T10:03:31;22.00;48.10
23591;DHT22;11973;52.098;7.582;2023-06-14T10:06:02;22.10;48.00
23591;DHT22;11973;52.098;7.582;2023-06-14T10:08:30;22.20;47.90
23591;DHT22;11973;52.098;7.582;2023-06-14T10:10:58;22.20;48.50
23591;DHT22;11973;52.098;7.582;2023-06-14T10:13:26;22.30;47.90
23591;DHT22;11973;52.098;7.582;2023-06-14T10:16:15;22.30;47.70
23591;DHT22;11973;52.098;7.582;2023-06-14T10:21:43;22.40;47.70
23591;DHT22;11973;52.098;7.582;2023-06-14T10:24:13;22.40;47.70
23591;DHT22;11973;52.098;7.582;2023-06-14T10:26:51;22.50;47.60
23591;DHT22;11973;52.098;7.582;2023-06-14T10:29:17;22.50;47.50
23591;DHT22;11973;52.098;7.582;2023-06-14T10:31:48;22.50;47.50
23591;DHT22;11973;52.098;7.582;2023-06-14T10:34:24;22.60;47.60
23591;DHT22;11973;52.098;7.582;2023-06-14T10:37:06;22.60;47.60
23591;DHT22;11973;52.098;7.582;2023-06-14T10:39:42;22.70;47.60
23591;DHT22;11973;52.098;7.582;2023-06-14T10:42:08;22.70;47.50
23591;DHT22;11973;52.098;7.582;2023-06-14T10:44:50;22.70;47.40
23591;DHT22;11973;52.098;7.582;2023-06-14T10:47:23;22.80;47.40
23591;DHT22;11973;52.098;7.582;2023-06-14T10:49:52;22.80;47.40
23591;DHT22;11973;52.098;7.582;2023-06-14T10:52:22;22.90;47.30
23591;DHT22;11973;52.098;7.582;2023-06-14T10:57:30;23.00;47.20
23591;DHT22;11973;52.098;7.582;2023-06-14T10:59:59;23.00;47.20
23591;DHT22;11973;52.098;7.582;2023-06-14T11:02:46;23.10;47.10
23591;DHT22;11973;52.098;7.582;2023-06-14T11:05:15;23.10;46.90
23591;DHT22;11973;52.098;7.582;2023-06-14T11:12:47;23.30;46.90
23591;DHT22;11973;52.098;7.582;2023-06-14T11:15:14;23.40;46.80
23591;DHT22;11973;52.098;7.582;2023-06-14T11:17:49;23.50;46.90
23591;DHT22;11973;52.098;7.582;2023-06-14T11:20:15;23.50;46.70
23591;DHT22;11973;52.098;7.582;2023-06-14T11:22:45;23.50;46.50
23591;DHT22;11973;52.098;7.582;2023-06-14T11:25:14;23.60;46.50
23591;DHT22;11973;52.098;7.582;2023-06-14T11:27:42;23.60;46.50
23591;DHT22;11973;52.098;7.582;2023-06-14T11:30:09;23.60;46.40
23591;DHT22;11973;52.098;7.582;2023-06-14T11:32:36;23.70;46.30
23591;DHT22;11973;52.098;7.582;2023-06-14T11:35:03;23.70;46.20
23591;DHT22;11973;52.098;7.582;2023-06-14T11:37:30;23.80;46.10
23591;DHT22;11973;52.098;7.582;2023-06-14T11:39:57;23.80;46.00
23591;DHT22;11973;52.098;7.582;2023-06-14T11:42:24;23.90;46.10
23591;DHT22;11973;52.098;7.582;2023-06-14T11:44:50;24.00;46.10
23591;DHT22;11973;52.098;7.582;2023-06-14T11:47:16;24.00;46.00
23591;DHT22;11973;52.098;7.582;2023-06-14T11:49:41;24.10;45.80
23591;DHT22;11973;52.098;7.582;2023-06-14T11:52:07;24.20;45.80
23591;DHT22;11973;52.098;7.582;2023-06-14T11:54:33;24.20;45.60
23591;DHT22;11973;52.098;7.582;2023-06-14T11:56:59;24.30;45.50
23591;DHT22;11973;52.098;7.582;2023-06-14T11:59:25;24.30;45.50
23591;DHT22;11973;52.098;7.582;2023-06-14T12:01:53;24.40;45.40
23591;DHT22;11973;52.098;7.582;2023-06-14T12:04:26;24.50;45.30
23591;DHT22;11973;52.098;7.582;2023-06-14T12:06:52;24.50;45.10
23591;DHT22;11973;52.098;7.582;2023-06-14T12:09:21;24.60;45.10
23591;DHT22;11973;52.098;7.582;2023-06-14T12:11:51;24.70;45.10
23591;DHT22;11973;52.098;7.582;2023-06-14T12:14:16;24.70;44.90
23591;DHT22;11973;52.098;7.582;2023-06-14T12:16:42;24.80;44.80
23591;DHT22;11973;52.098;7.582;2023-06-14T12:19:15;24.90;44.80
23591;DHT22;11973;52.098;7.582;2023-06-14T12:21:43;24.90;44.60
23591;DHT22;11973;52.098;7.582;2023-06-14T12:24:09;25.00;44.50
23591;DHT22;11973;52.098;7.582;2023-06-14T12:26:41;25.10;44.30
23591;DHT22;11973;52.098;7.582;2023-06-14T12:29:07;25.20;44.20
23591;DHT22;11973;52.098;7.582;2023-06-14T12:31:33;25.30;44.10
23591;DHT22;11973;52.098;7.582;2023-06-14T12:33:59;25.40;44.00
23591;DHT22;11973;52.098;7.582;2023-06-14T12:36:26;25.60;43.90
23591;DHT22;11973;52.098;7.582;2023-06-14T12:38:51;25.60;44.30
23591;DHT22;11973;52.098;7.582;2023-06-14T12:41:20;25.70;43.50
23591;DHT22;11973;52.098;7.582;2023-06-14T12:43:50;25.80;43.50
23591;DHT22;11973;52.098;7.582;2023-06-14T12:46:16;25.90;43.20
23591;DHT22;11973;52.098;7.582;2023-06-14T12:48:45;25.90;43.10
23591;DHT22;11973;52.098;7.582;2023-06-14T12:51:11;26.00;43.10
23591;DHT22;11973;52.098;7.582;2023-06-14T12:53:36;26.10;42.90
23591;DHT22;11973;52.098;7.582;2023-06-14T12:56:02;26.10;42.80
23591;DHT22;11973;52.098;7.582;2023-06-14T12:58:28;26.20;42.70
23591;DHT22;11973;52.098;7.582;2023-06-14T13:00:54;26.30;42.60
23591;DHT22;11973;52.098;7.582;2023-06-14T13:03:20;26.40;42.40
23591;DHT22;11973;52.098;7.582;2023-06-14T13:05:45;26.50;42.30
23591;DHT22;11973;52.098;7.582;2023-06-14T13:08:11;26.60;42.10
23591;DHT22;11973;52.098;7.582;2023-06-14T13:10:37;26.70;41.90
23591;DHT22;11973;52.098;7.582;2023-06-14T13:13:03;26.70;42.30
23591;DHT22;11973;52.098;7.582;2023-06-14T13:15:29;26.80;42.20
23591;DHT22;11973;52.098;7.582;2023-06-14T13:17:55;26.90;41.50
23591;DHT22;11973;52.098;7.582;2023-06-14T13:20:21;27.00;41.50
23591;DHT22;11973;52.098;7.582;2023-06-14T13:22:47;27.00;41.40
23591;DHT22;11973;52.098;7.582;2023-06-14T13:25:12;27.10;41.10
23591;DHT22;11973;52.098;7.582;2023-06-14T13:27:38;27.20;41.00
23591;DHT22;11973;52.098;7.582;2023-06-14T13:30:04;27.30;40.90
23591;DHT22;11973;52.098;7.582;2023-06-14T13:32:34;27.40;40.80
23591;DHT22;11973;52.098;7.582;2023-06-14T13:35:00;27.40;40.80
23591;DHT22;11973;52.098;7.582;2023-06-14T13:37:26;27.60;40.80
23591;DHT22;11973;52.098;7.582;2023-06-14T13:39:52;27.70;40.70
23591;DHT22;11973;52.098;7.582;2023-06-14T13:42:17;27.80;40.50
23591;DHT22;11973;52.098;7.582;2023-06-14T13:44:43;27.90;40.30
23591;DHT22;11973;52.098;7.582;2023-06-14T13:47:09;27.90;40.10
23591;DHT22;11973;52.098;7.582;2023-06-14T13:49:35;28.00;40.00
23591;DHT22;11973;52.098;7.582;2023-06-14T13:52:01;28.10;39.90
23591;DHT22;11973;52.098;7.582;2023-06-14T13:54:27;28.30;39.90
23591;DHT22;11973;52.098;7.582;2023-06-14T13:56:52;28.50;39.90
23591;DHT22;11973;52.098;7.582;2023-06-14T13:59:18;28.80;39.90
23591;DHT22;11973;52.098;7.582;2023-06-14T14:01:44;29.30;39.90
23591;DHT22;11973;52.098;7.582;2023-06-14T14:04:10;29.80;40.00
23591;DHT22;11973;52.098;7.582;2023-06-14T14:06:36;30.30;40.10
23591;DHT22;11973;52.098;7.582;2023-06-14T14:09:03;30.90;39.90
23591;DHT22;11973;52.098;7.582;2023-06-14T14:11:28;31.60;39.70
23591;DHT22;11973;52.098;7.582;2023-06-14T14:13:58;32.20;39.20
23591;DHT22;11973;52.098;7.582;2023-06-14T14:16:24;32.80;38.30
23591;DHT22;11973;52.098;7.582;2023-06-14T14:18:50;33.30;37.60
23591;DHT22;11973;52.098;7.582;2023-06-14T14:21:16;33.70;36.90
23591;DHT22;11973;52.098;7.582;2023-06-14T14:23:41;34.10;36.50
23591;DHT22;11973;52.098;7.582;2023-06-14T14:26:07;34.50;36.00
23591;DHT22;11973;52.098;7.582;2023-06-14T14:28:33;34.90;35.60
23591;DHT22;11973;52.098;7.582;2023-06-14T14:30:59;35.30;35.00
23591;DHT22;11973;52.098;7.582;2023-06-14T14:33:25;35.50;34.10
23591;DHT22;11973;52.098;7.582;2023-06-14T14:35:51;35.40;33.30
23591;DHT22;11973;52.098;7.582;2023-06-14T14:38:16;35.30;32.90
23591;DHT22;11973;52.098;7.582;2023-06-14T14:40:43;35.50;33.20
23591;DHT22;11973;52.098;7.582;2023-06-14T14:43:09;35.80;33.00
23591;DHT22;11973;52.098;7.582;2023-06-14T14:45:35;36.00;32.50
23591;DHT22;11973;52.098;7.582;2023-06-14T14:48:01;36.30;32.30
23591;DHT22;11973;52.098;7.582;2023-06-14T14:50:28;36.70;32.00
23591;DHT22;11973;52.098;7.582;2023-06-14T14:52:53;37.10;31.60
23591;DHT22;11973;52.098;7.582;2023-06-14T14:55:19;37.40;31.10
23591;DHT22;11973;52.098;7.582;2023-06-14T14:57:46;37.80;30.60
23591;DHT22;11973;52.098;7.582;2023-06-14T15:00:13;38.10;30.00
23591;DHT22;11973;52.098;7.582;2023-06-14T15:02:39;38.40;30.00
23591;DHT22;11973;52.098;7.582;2023-06-14T15:05:05;38.80;29.70
23591;DHT22;11973;52.098;7.582;2023-06-14T15:07:31;39.10;29.30
23591;DHT22;11973;52.098;7.582;2023-06-14T15:10:02;39.50;29.00
23591;DHT22;11973;52.098;7.582;2023-06-14T15:12:28;39.70;29.20
23591;DHT22;11973;52.098;7.582;2023-06-14T15:14:53;40.00;28.30
23591;DHT22;11973;52.098;7.582;2023-06-14T15:17:20;40.10;27.90
23591;DHT22;11973;52.098;7.582;2023-06-14T15:19:46;40.10;27.60
23591;DHT22;11973;52.098;7.582;2023-06-14T15:22:13;40.10;27.30
23591;DHT22;11973;52.098;7.582;2023-06-14T15:24:41;40.30;27.20
23591;DHT22;11973;52.098;7.582;2023-06-14T15:27:06;40.60;27.10
23591;DHT22;11973;52.098;7.582;2023-06-14T15:29:33;41.00;26.70
23591;DHT22;11973;52.098;7.582;2023-06-14T15:31:58;41.40;26.40
23591;DHT22;11973;52.098;7.582;2023-06-14T15:34:24;41.20;26.10
23591;DHT22;11973;52.098;7.582;2023-06-14T15:36:50;40.40;25.20
23591;DHT22;11973;52.098;7.582;2023-06-14T15:39:16;39.50;25.40
23591;DHT22;11973;52.098;7.582;2023-06-14T15:41:41;39.10;25.70
23591;DHT22;11973;52.098;7.582;2023-06-14T15:44:07;39.20;25.90
23591;DHT22;11973;52.098;7.582;2023-06-14T15:46:34;39.40;25.80
23591;DHT22;11973;52.098;7.582;2023-06-14T15:48:59;39.80;25.70
23591;DHT22;11973;52.098;7.582;2023-06-14T15:51:25;40.00;25.50
23591;DHT22;11973;52.098;7.582;2023-06-14T15:53:51;40.30;25.40
23591;DHT22;11973;52.098;7.582;2023-06-14T15:56:18;40.70;25.30
23591;DHT22;11973;52.098;7.582;2023-06-14T15:58:43;41.10;25.20
23591;DHT22;11973;52.098;7.582;2023-06-14T16:01:09;41.50;24.90
23591;DHT22;11973;52.098;7.582;2023-06-14T16:03:35;41.80;24.70
23591;DHT22;11973;52.098;7.582;2023-06-14T16:06:01;42.00;24.40
23591;DHT22;11973;52.098;7.582;2023-06-14T16:08:27;42.30;24.20
23591;DHT22;11973;52.098;7.582;2023-06-14T16:10:52;42.60;24.10
23591;DHT22;11973;52.098;7.582;2023-06-14T16:13:18;42.90;24.10
23591;DHT22;11973;52.098;7.582;2023-06-14T16:15:44;43.20;23.80
23591;DHT22;11973;52.098;7.582;2023-06-14T16:18:09;43.40;23.60
23591;DHT22;11973;52.098;7.582;2023-06-14T16:20:35;43.70;23.60
23591;DHT22;11973;52.098;7.582;2023-06-14T16:23:01;43.70;23.30
23591;DHT22;11973;52.098;7.582;2023-06-14T16:25:27;43.70;23.10
23591;DHT22;11973;52.098;7.582;2023-06-14T16:27:54;43.60;22.90
23591;DHT22;11973;52.098;7.582;2023-06-14T16:30:20;43.50;23.30
23591;DHT22;11973;52.098;7.582;2023-06-14T16:32:46;43.50;22.70
23591;DHT22;11973;52.098;7.582;2023-06-14T16:35:11;43.60;22.60
23591;DHT22;11973;52.098;7.582;2023-06-14T16:37:37;43.80;22.50
23591;DHT22;11973;52.098;7.582;2023-06-14T16:40:03;43.90;22.30
23591;DHT22;11973;52.098;7.582;2023-06-14T16:42:29;43.80;22.10
23591;DHT22;11973;52.098;7.582;2023-06-14T16:44:55;43.50;22.00
23591;DHT22;11973;52.098;7.582;2023-06-14T16:47:20;42.60;21.90
23591;DHT22;11973;52.098;7.582;2023-06-14T16:49:46;41.40;21.90
23591;DHT22;11973;52.098;7.582;2023-06-14T16:52:12;40.20;21.90
23591;DHT22;11973;52.098;7.582;2023-06-14T16:54:38;39.00;22.10
23591;DHT22;11973;52.098;7.582;2023-06-14T16:57:04;38.00;22.40
23591;DHT22;11973;52.098;7.582;2023-06-14T16:59:29;37.10;22.60
23591;DHT22;11973;52.098;7.582;2023-06-14T17:02:01;36.20;22.90
23591;DHT22;11973;52.098;7.582;2023-06-14T17:04:27;35.40;23.20
23591;DHT22;11973;52.098;7.582;2023-06-14T17:06:52;34.70;23.50
23591;DHT22;11973;52.098;7.582;2023-06-14T17:09:18;34.10;24.20
23591;DHT22;11973;52.098;7.582;2023-06-14T17:11:44;33.50;24.50
23591;DHT22;11973;52.098;7.582;2023-06-14T17:14:09;33.00;24.70
23591;DHT22;11973;52.098;7.582;2023-06-14T17:16:35;32.50;24.90
23591;DHT22;11973;52.098;7.582;2023-06-14T17:19:01;32.10;25.20
23591;DHT22;11973;52.098;7.582;2023-06-14T17:21:29;31.70;25.40
23591;DHT22;11973;52.098;7.582;2023-06-14T17:23:55;31.40;25.70
23591;DHT22;11973;52.098;7.582;2023-06-14T17:26:21;31.00;25.90
23591;DHT22;11973;52.098;7.582;2023-06-14T17:28:47;30.70;26.20
23591;DHT22;11973;52.098;7.582;2023-06-14T17:31:12;30.40;26.40
23591;DHT22;11973;52.098;7.582;2023-06-14T17:33:38;30.20;26.70
23591;DHT22;11973;52.098;7.582;2023-06-14T17:36:04;29.90;26.80
23591;DHT22;11973;52.098;7.582;2023-06-14T17:38:30;29.70;27.20
23591;DHT22;11973;52.098;7.582;2023-06-14T17:40:56;29.50;27.40
23591;DHT22;11973;52.098;7.582;2023-06-14T17:43:24;29.30;27.60
23591;DHT22;11973;52.098;7.582;2023-06-14T17:45:49;29.20;27.90
23591;DHT22;11973;52.098;7.582;2023-06-14T17:48:15;29.00;28.10
23591;DHT22;11973;52.098;7.582;2023-06-14T17:50:41;28.80;28.30
23591;DHT22;11973;52.098;7.582;2023-06-14T17:53:06;28.70;28.50
23591;DHT22;11973;52.098;7.582;2023-06-14T17:55:32;28.60;28.70
23591;DHT22;11973;52.098;7.582;2023-06-14T17:58:02;28.50;29.00
23591;DHT22;11973;52.098;7.582;2023-06-14T18:00:31;28.30;29.10
23591;DHT22;11973;52.098;7.582;2023-06-14T18:02:56;28.20;29.30
23591;DHT22;11973;52.098;7.582;2023-06-14T18:05:24;28.10;29.50
23591;DHT22;11973;52.098;7.582;2023-06-14T18:07:51;28.00;29.70
23591;DHT22;11973;52.098;7.582;2023-06-14T18:10:17;27.90;29.80
23591;DHT22;11973;52.098;7.582;2023-06-14T18:12:44;27.80;30.00
23591;DHT22;11973;52.098;7.582;2023-06-14T18:15:10;27.70;30.20
23591;DHT22;11973;52.098;7.582;2023-06-14T18:17:36;27.60;30.30
23591;DHT22;11973;52.098;7.582;2023-06-14T18:20:02;27.50;30.60
23591;DHT22;11973;52.098;7.582;2023-06-14T18:22:29;27.40;30.80
23591;DHT22;11973;52.098;7.582;2023-06-14T18:24:54;27.30;31.70
23591;DHT22;11973;52.098;7.582;2023-06-14T18:27:21;27.20;31.20
23591;DHT22;11973;52.098;7.582;2023-06-14T18:29:47;27.10;31.50
23591;DHT22;11973;52.098;7.582;2023-06-14T18:32:13;27.00;31.70
23591;DHT22;11973;52.098;7.582;2023-06-14T18:34:39;27.00;32.00
23591;DHT22;11973;52.098;7.582;2023-06-14T18:37:06;26.90;32.20
23591;DHT22;11973;52.098;7.582;2023-06-14T18:39:32;26.80;33.00
23591;DHT22;11973;52.098;7.582;2023-06-14T18:41:58;26.70;32.60
23591;DHT22;11973;52.098;7.582;2023-06-14T18:44:24;26.60;32.70
23591;DHT22;11973;52.098;7.582;2023-06-14T18:46:50;26.60;33.10
23591;DHT22;11973;52.098;7.582;2023-06-14T18:49:16;26.50;33.30
23591;DHT22;11973;52.098;7.582;2023-06-14T18:51:42;26.50;33.40
23591;DHT22;11973;52.098;7.582;2023-06-14T18:54:08;26.40;33.70
23591;DHT22;11973;52.098;7.582;2023-06-14T18:56:33;26.30;33.80
23591;DHT22;11973;52.098;7.582;2023-06-14T18:59:01;26.20;34.00
23591;DHT22;11973;52.098;7.582;2023-06-14T19:01:29;26.20;34.20
23591;DHT22;11973;52.098;7.582;2023-06-14T19:03:55;26.10;34.40
23591;DHT22;11973;52.098;7.582;2023-06-14T19:06:21;26.10;34.60
23591;DHT22;11973;52.098;7.582;2023-06-14T19:08:50;26.00;35.40
23591;DHT22;11973;52.098;7.582;2023-06-14T19:11:16;25.90;34.90
23591;DHT22;11973;52.098;7.582;2023-06-14T19:13:41;25.80;35.10
23591;DHT22;11973;52.098;7.582;2023-06-14T19:16:08;25.80;35.30
23591;DHT22;11973;52.098;7.582;2023-06-14T19:18:34;25.70;35.60
23591;DHT22;11973;52.098;7.582;2023-06-14T19:20:59;25.60;35.70
23591;DHT22;11973;52.098;7.582;2023-06-14T19:23:25;25.50;35.90
23591;DHT22;11973;52.098;7.582;2023-06-14T19:25:51;25.50;36.10
23591;DHT22;11973;52.098;7.582;2023-06-14T19:28:17;25.40;36.30
23591;DHT22;11973;52.098;7.582;2023-06-14T19:30:46;25.30;36.60
23591;DHT22;11973;52.098;7.582;2023-06-14T19:33:12;25.20;36.80
23591;DHT22;11973;52.098;7.582;2023-06-14T19:35:38;25.10;36.90
23591;DHT22;11973;52.098;7.582;2023-06-14T19:38:04;25.10;37.80
23591;DHT22;11973;52.098;7.582;2023-06-14T19:40:29;25.00;37.30
23591;DHT22;11973;52.098;7.582;2023-06-14T19:42:55;24.90;37.50
23591;DHT22;11973;52.098;7.582;2023-06-14T19:45:21;24.80;37.70
23591;DHT22;11973;52.098;7.582;2023-06-14T19:47:47;24.70;37.90
23591;DHT22;11973;52.098;7.582;2023-06-14T19:50:12;24.60;38.00
23591;DHT22;11973;52.098;7.582;2023-06-14T19:52:38;24.50;38.20